sensor_id;sensor_type;location;lat;lon;timestamp;P1;durP1;ratioP1;P2;durP2;ratioP2
17648;SDS011;8943;51.110;-4.158;2023-02-20T00:01:47;10.37;;;1.73;;
17648;SDS011;8943;51.110;-4.158;2023-02-20T00:04:17;8.63;;;1.50;;
17648;SDS011;8943;51.110;-4.158;2023-02-20T00:06:45;9.67;;;0.70;;
17648;SDS011;8943;51.110;-4.158;2023-02-20T00:09:14;7.93;;;0.97;;
17648;SDS011;8943;51.110;-4.158;2023-02-20T00:11:43;11.37;;;2.17;;
17648;SDS011;8943;51.110;-4.158;2023-02-20T00:14:14;7.70;;;1.43;;
17648;SDS011;8943;51.110;-4.158;2023-02-20T00:16:45;10.47;;;1.40;;
17648;SDS011;8943;51.110;-4.158;2023-02-20T00:19:14;9.57;;;1.63;;
17648;SDS011;8943;51.110;-4.158;2023-02-20T00:21:45;5.23;;;1.43;;
17648;SDS011;8943;51.110;-4.158;2023-02-20T00:24:14;9.87;;;1.80;;
17648;SDS011;8943;51.110;-4.158;2023-02-20T00:26:45;5.57;;;1.07;;
17648;SDS011;8943;51.110;-4.158;2023-02-20T00:29:16;6.73;;;1.07;;
17648;SDS011;8943;51.110;-4.158;2023-02-20T00:31:49;6.97;;;1.23;;
17648;SDS011;8943;51.110;-4.158;2023-02-20T00:34:18;6.10;;;1.37;;
17648;SDS011;8943;51.110;-4.158;2023-02-20T00:36:47;8.60;;;1.77;;
17648;SDS011;8943;51.110;-4.158;2023-02-20T00:39:15;4.53;;;1.00;;
17648;SDS011;8943;51.110;-4.158;2023-02-20T00:41:44;6.50;;;1.47;;
17648;SDS011;8943;51.110;-4.158;2023-02-20T00:44:12;8.43;;;1.33;;
17648;SDS011;8943;51.110;-4.158;2023-02-20T00:46:41;7.97;;;1.30;;
17648;SDS011;8943;51.110;-4.158;2023-02-20T00:49:10;7.40;;;1.40;;
17648;SDS011;8943;51.110;-4.158;2023-02-20T00:51:39;9.70;;;1.90;;
17648;SDS011;8943;51.110;-4.158;2023-02-20T00:54:08;5.43;;;1.13;;
17648;SDS011;8943;51.110;-4.158;2023-02-20T00:56:36;10.37;;;1.53;;
17648;SDS011;8943;51.110;-4.158;2023-02-20T00:59:04;9.07;;;2.20;;
17648;SDS011;8943;51.110;-4.158;2023-02-20T01:01:32;7.50;;;1.30;;
17648;SDS011;8943;51.110;-4.158;2023-02-20T01:04:02;7.93;;;1.40;;
17648;SDS011;8943;51.110;-4.158;2023-02-20T01:06:30;5.20;;;1.10;;
17648;SDS011;8943;51.110;-4.158;2023-02-20T01:08:58;7.17;;;1.23;;
17648;SDS011;8943;51.110;-4.158;2023-02-20T01:11:27;9.73;;;1.87;;
17648;SDS011;8943;51.110;-4.158;2023-02-20T01:13:55;11.33;;;1.63;;
17648;SDS011;8943;51.110;-4.158;2023-02-20T01:16:23;10.07;;;2.00;;
17648;SDS011;8943;51.110;-4.158;2023-02-20T01:18:51;9.63;;;1.83;;
17648;SDS011;8943;51.110;-4.158;2023-02-20T01:21:21;6.50;;;2.20;;
17648;SDS011;8943;51.110;-4.158;2023-02-20T01:23:49;7.40;;;1.60;;
17648;SDS011;8943;51.110;-4.158;2023-02-20T01:26:17;11.63;;;1.73;;
17648;SDS011;8943;51.110;-4.158;2023-02-20T01:28:45;8.63;;;1.87;;
17648;SDS011;8943;51.110;-4.158;2023-02-20T01:31:15;12.33;;;1.77;;
17648;SDS011;8943;51.110;-4.158;2023-02-20T01:33:43;11.57;;;1.60;;
17648;SDS011;8943;51.110;-4.158;2023-02-20T01:36:12;13.37;;;2.07;;
17648;SDS011;8943;51.110;-4.158;2023-02-20T01:38:42;12.40;;;1.73;;
17648;SDS011;8943;51.110;-4.158;2023-02-20T01:41:10;12.03;;;1.80;;
17648;SDS011;8943;51.110;-4.158;2023-02-20T01:43:39;6.43;;;1.43;;
17648;SDS011;8943;51.110;-4.158;2023-02-20T01:49:12;7.80;;;1.30;;
17648;SDS011;8943;51.110;-4.158;2023-02-20T01:51:43;15.80;;;1.10;;
17648;SDS011;8943;51.110;-4.158;2023-02-20T01:54:17;7.20;;;1.47;;
17648;SDS011;8943;51.110;-4.158;2023-02-20T01:56:49;7.07;;;1.47;;
17648;SDS011;8943;51.110;-4.158;2023-02-20T01:59:20;10.73;;;1.53;;
17648;SDS011;8943;51.110;-4.158;2023-02-20T02:01:50;7.43;;;1.40;;
17648;SDS011;8943;51.110;-4.158;2023-02-20T02:04:19;12.57;;;1.40;;
17648;SDS011;8943;51.110;-4.158;2023-02-20T02:06:48;13.40;;;1.80;;
17648;SDS011;8943;51.110;-4.158;2023-02-20T02:09:23;3.30;;;0.93;;
17648;SDS011;8943;51.110;-4.158;2023-02-20T02:11:59;4.47;;;1.33;;
17648;SDS011;8943;51.110;-4.158;2023-02-20T02:14:27;9.20;;;1.20;;
17648;SDS011;8943;51.110;-4.158;2023-02-20T02:16:59;6.17;;;0.80;;
17648;SDS011;8943;51.110;-4.158;2023-02-20T02:19:44;5.00;;;0.90;;
17648;SDS011;8943;51.110;-4.158;2023-02-20T02:22:35;6.30;;;1.10;;
17648;SDS011;8943;51.110;-4.158;2023-02-20T02:25:25;8.70;;;1.50;;
17648;SDS011;8943;51.110;-4.158;2023-02-20T02:34:43;6.80;;;1.77;;
17648;SDS011;8943;51.110;-4.158;2023-02-20T02:37:39;5.53;;;1.20;;
17648;SDS011;8943;51.110;-4.158;2023-02-20T02:40:11;12.67;;;1.67;;
17648;SDS011;8943;51.110;-4.158;2023-02-20T02:43:02;11.13;;;2.23;;
17648;SDS011;8943;51.110;-4.158;2023-02-20T02:45:36;12.87;;;2.30;;
17648;SDS011;8943;51.110;-4.158;2023-02-20T02:48:15;12.57;;;2.70;;
17648;SDS011;8943;51.110;-4.158;2023-02-20T02:50:48;14.10;;;2.83;;
17648;SDS011;8943;51.110;-4.158;2023-02-20T02:53:22;11.93;;;2.90;;
17648;SDS011;8943;51.110;-4.158;2023-02-20T02:55:51;14.87;;;2.63;;
17648;SDS011;8943;51.110;-4.158;2023-02-20T02:58:20;10.10;;;1.60;;
17648;SDS011;8943;51.110;-4.158;2023-02-20T03:00:50;14.80;;;2.27;;
17648;SDS011;8943;51.110;-4.158;2023-02-20T03:03:24;7.13;;;1.63;;
17648;SDS011;8943;51.110;-4.158;2023-02-20T03:05:56;9.23;;;2.00;;
17648;SDS011;8943;51.110;-4.158;2023-02-20T03:08:31;4.23;;;1.00;;
17648;SDS011;8943;51.110;-4.158;2023-02-20T03:11:04;11.10;;;1.83;;
17648;SDS011;8943;51.110;-4.158;2023-02-20T03:13:36;9.47;;;1.37;;
17648;SDS011;8943;51.110;-4.158;2023-02-20T03:16:27;6.77;;;1.23;;
17648;SDS011;8943;51.110;-4.158;2023-02-20T03:19:00;4.67;;;0.93;;
17648;SDS011;8943;51.110;-4.158;2023-02-20T03:21:30;4.77;;;1.30;;
17648;SDS011;8943;51.110;-4.158;2023-02-20T03:24:02;10.80;;;1.27;;
17648;SDS011;8943;51.110;-4.158;2023-02-20T03:26:32;8.03;;;1.40;;
17648;SDS011;8943;51.110;-4.158;2023-02-20T03:29:04;6.97;;;1.00;;
17648;SDS011;8943;51.110;-4.158;2023-02-20T03:31:38;5.70;;;0.80;;
17648;SDS011;8943;51.110;-4.158;2023-02-20T03:34:11;5.30;;;0.80;;
17648;SDS011;8943;51.110;-4.158;2023-02-20T03:37:04;11.10;;;1.53;;
17648;SDS011;8943;51.110;-4.158;2023-02-20T03:39:56;5.30;;;1.17;;
17648;SDS011;8943;51.110;-4.158;2023-02-20T03:42:46;4.00;;;0.70;;
17648;SDS011;8943;51.110;-4.158;2023-02-20T03:45:38;7.83;;;1.17;;
17648;SDS011;8943;51.110;-4.158;2023-02-20T03:48:11;3.20;;;0.97;;
17648;SDS011;8943;51.110;-4.158;2023-02-20T03:50:43;6.67;;;1.20;;
17648;SDS011;8943;51.110;-4.158;2023-02-20T03:53:28;2.37;;;1.07;;
17648;SDS011;8943;51.110;-4.158;2023-02-20T03:55:59;3.00;;;0.73;;
17648;SDS011;8943;51.110;-4.158;2023-02-20T03:58:32;5.20;;;0.93;;
17648;SDS011;8943;51.110;-4.158;2023-02-20T04:01:04;2.90;;;1.27;;
17648;SDS011;8943;51.110;-4.158;2023-02-20T04:03:35;5.00;;;1.50;;
17648;SDS011;8943;51.110;-4.158;2023-02-20T04:06:08;3.57;;;0.90;;
17648;SDS011;8943;51.110;-4.158;2023-02-20T04:08:40;4.90;;;0.90;;
17648;SDS011;8943;51.110;-4.158;2023-02-20T04:11:13;10.60;;;1.20;;
17648;SDS011;8943;51.110;-4.158;2023-02-20T04:13:47;3.23;;;0.73;;
17648;SDS011;8943;51.110;-4.158;2023-02-20T04:16:18;2.93;;;0.77;;
17648;SDS011;8943;51.110;-4.158;2023-02-20T04:18:47;4.03;;;0.90;;
17648;SDS011;8943;51.110;-4.158;2023-02-20T04:21:17;3.93;;;0.70;;
17648;SDS011;8943;51.110;-4.158;2023-02-20T04:23:51;5.17;;;1.07;;
17648;SDS011;8943;51.110;-4.158;2023-02-20T04:26:30;2.77;;;0.80;;
17648;SDS011;8943;51.110;-4.158;2023-02-20T04:28:59;1.57;;;0.43;;
17648;SDS011;8943;51.110;-4.158;2023-02-20T04:31:27;1.53;;;0.30;;
17648;SDS011;8943;51.110;-4.158;2023-02-20T04:33:55;6.60;;;0.80;;
17648;SDS011;8943;51.110;-4.158;2023-02-20T04:36:24;4.27;;;0.90;;
17648;SDS011;8943;51.110;-4.158;2023-02-20T04:38:52;4.07;;;0.70;;
17648;SDS011;8943;51.110;-4.158;2023-02-20T04:41:20;10.37;;;1.30;;
17648;SDS011;8943;51.110;-4.158;2023-02-20T04:43:51;3.20;;;0.60;;
17648;SDS011;8943;51.110;-4.158;2023-02-20T04:46:40;4.87;;;1.13;;
17648;SDS011;8943;51.110;-4.158;2023-02-20T04:49:08;7.20;;;0.50;;
17648;SDS011;8943;51.110;-4.158;2023-02-20T04:51:37;5.53;;;1.00;;
17648;SDS011;8943;51.110;-4.158;2023-02-20T04:54:05;4.83;;;0.80;;
17648;SDS011;8943;51.110;-4.158;2023-02-20T04:56:33;4.77;;;1.00;;
17648;SDS011;8943;51.110;-4.158;2023-02-20T04:59:03;8.03;;;1.50;;
17648;SDS011;8943;51.110;-4.158;2023-02-20T05:01:32;6.23;;;0.87;;
17648;SDS011;8943;51.110;-4.158;2023-02-20T05:04:00;6.90;;;1.30;;
17648;SDS011;8943;51.110;-4.158;2023-02-20T05:06:28;3.63;;;1.00;;
17648;SDS011;8943;51.110;-4.158;2023-02-20T05:08:56;8.93;;;1.30;;
17648;SDS011;8943;51.110;-4.158;2023-02-20T05:11:25;4.37;;;0.83;;
17648;SDS011;8943;51.110;-4.158;2023-02-20T05:13:53;6.60;;;1.10;;
17648;SDS011;8943;51.110;-4.158;2023-02-20T05:16:23;2.00;;;0.80;;
17648;SDS011;8943;51.110;-4.158;2023-02-20T05:18:52;2.37;;;0.60;;
17648;SDS011;8943;51.110;-4.158;2023-02-20T05:21:20;3.63;;;0.77;;
17648;SDS011;8943;51.110;-4.158;2023-02-20T05:24:06;4.07;;;0.80;;
17648;SDS011;8943;51.110;-4.158;2023-02-20T05:26:35;5.10;;;1.07;;
17648;SDS011;8943;51.110;-4.158;2023-02-20T05:29:03;6.07;;;1.33;;
17648;SDS011;8943;51.110;-4.158;2023-02-20T05:31:33;4.43;;;0.97;;
17648;SDS011;8943;51.110;-4.158;2023-02-20T05:34:02;6.43;;;1.33;;
17648;SDS011;8943;51.110;-4.158;2023-02-20T05:36:30;1.17;;;0.60;;
17648;SDS011;8943;51.110;-4.158;2023-02-20T05:38:59;4.33;;;1.10;;
17648;SDS011;8943;51.110;-4.158;2023-02-20T05:41:29;4.67;;;1.30;;
17648;SDS011;8943;51.110;-4.158;2023-02-20T05:43:59;7.63;;;1.10;;
17648;SDS011;8943;51.110;-4.158;2023-02-20T05:46:28;8.67;;;0.83;;
17648;SDS011;8943;51.110;-4.158;2023-02-20T05:48:58;3.97;;;0.90;;
17648;SDS011;8943;51.110;-4.158;2023-02-20T05:51:27;4.03;;;1.57;;
17648;SDS011;8943;51.110;-4.158;2023-02-20T05:53:59;5.23;;;1.10;;
17648;SDS011;8943;51.110;-4.158;2023-02-20T05:56:28;3.30;;;0.80;;
17648;SDS011;8943;51.110;-4.158;2023-02-20T05:58:58;3.90;;;0.57;;
17648;SDS011;8943;51.110;-4.158;2023-02-20T06:01:27;4.10;;;0.70;;
17648;SDS011;8943;51.110;-4.158;2023-02-20T06:03:58;2.10;;;0.90;;
17648;SDS011;8943;51.110;-4.158;2023-02-20T06:06:30;4.73;;;1.00;;
17648;SDS011;8943;51.110;-4.158;2023-02-20T06:08:59;8.47;;;0.97;;
17648;SDS011;8943;51.110;-4.158;2023-02-20T06:11:28;7.97;;;1.20;;
17648;SDS011;8943;51.110;-4.158;2023-02-20T06:13:56;4.13;;;1.00;;
17648;SDS011;8943;51.110;-4.158;2023-02-20T06:16:26;2.97;;;0.87;;
17648;SDS011;8943;51.110;-4.158;2023-02-20T06:18:56;3.93;;;0.93;;
17648;SDS011;8943;51.110;-4.158;2023-02-20T06:21:26;11.03;;;1.33;;
17648;SDS011;8943;51.110;-4.158;2023-02-20T06:23:55;14.43;;;0.90;;
17648;SDS011;8943;51.110;-4.158;2023-02-20T06:26:23;6.03;;;1.30;;
17648;SDS011;8943;51.110;-4.158;2023-02-20T06:28:51;9.83;;;1.07;;
17648;SDS011;8943;51.110;-4.158;2023-02-20T06:31:22;4.00;;;0.80;;
17648;SDS011;8943;51.110;-4.158;2023-02-20T06:33:53;6.60;;;1.00;;
17648;SDS011;8943;51.110;-4.158;2023-02-20T06:36:24;7.17;;;0.90;;
17648;SDS011;8943;51.110;-4.158;2023-02-20T06:38:54;8.27;;;1.17;;
17648;SDS011;8943;51.110;-4.158;2023-02-20T06:41:24;1.33;;;0.27;;
17648;SDS011;8943;51.110;-4.158;2023-02-20T06:43:52;9.50;;;0.90;;
17648;SDS011;8943;51.110;-4.158;2023-02-20T06:46:26;2.43;;;0.70;;
17648;SDS011;8943;51.110;-4.158;2023-02-20T06:48:55;9.10;;;0.93;;
17648;SDS011;8943;51.110;-4.158;2023-02-20T06:51:27;2.87;;;0.80;;
17648;SDS011;8943;51.110;-4.158;2023-02-20T06:53:56;9.57;;;0.90;;
17648;SDS011;8943;51.110;-4.158;2023-02-20T06:56:25;5.67;;;0.60;;
17648;SDS011;8943;51.110;-4.158;2023-02-20T06:58:54;6.57;;;1.00;;
17648;SDS011;8943;51.110;-4.158;2023-02-20T07:01:24;6.07;;;0.90;;
17648;SDS011;8943;51.110;-4.158;2023-02-20T07:03:56;6.60;;;0.87;;
17648;SDS011;8943;51.110;-4.158;2023-02-20T07:06:28;9.37;;;1.20;;
17648;SDS011;8943;51.110;-4.158;2023-02-20T07:08:59;8.90;;;1.13;;
17648;SDS011;8943;51.110;-4.158;2023-02-20T07:11:28;8.60;;;0.70;;
17648;SDS011;8943;51.110;-4.158;2023-02-20T07:13:57;4.63;;;0.63;;
17648;SDS011;8943;51.110;-4.158;2023-02-20T07:19:18;23.87;;;1.33;;
17648;SDS011;8943;51.110;-4.158;2023-02-20T07:21:48;66.03;;;3.53;;
17648;SDS011;8943;51.110;-4.158;2023-02-20T07:24:17;49.40;;;2.70;;
17648;SDS011;8943;51.110;-4.158;2023-02-20T07:26:46;9.90;;;1.30;;
17648;SDS011;8943;51.110;-4.158;2023-02-20T07:29:15;5.30;;;1.00;;
17648;SDS011;8943;51.110;-4.158;2023-02-20T07:31:43;6.80;;;1.20;;
17648;SDS011;8943;51.110;-4.158;2023-02-20T07:34:12;19.03;;;1.40;;
17648;SDS011;8943;51.110;-4.158;2023-02-20T07:36:40;27.60;;;2.27;;
17648;SDS011;8943;51.110;-4.158;2023-02-20T07:39:11;66.33;;;4.07;;
17648;SDS011;8943;51.110;-4.158;2023-02-20T07:41:40;50.40;;;2.83;;
17648;SDS011;8943;51.110;-4.158;2023-02-20T07:44:08;29.17;;;1.67;;
17648;SDS011;8943;51.110;-4.158;2023-02-20T07:46:38;6.90;;;0.97;;
17648;SDS011;8943;51.110;-4.158;2023-02-20T07:49:06;8.63;;;3.17;;
17648;SDS011;8943;51.110;-4.158;2023-02-20T07:51:35;1.83;;;0.70;;
17648;SDS011;8943;51.110;-4.158;2023-02-20T07:54:03;9.57;;;1.23;;
17648;SDS011;8943;51.110;-4.158;2023-02-20T07:56:32;1.53;;;0.70;;
17648;SDS011;8943;51.110;-4.158;2023-02-20T07:59:00;6.07;;;1.10;;
17648;SDS011;8943;51.110;-4.158;2023-02-20T08:01:29;7.13;;;1.20;;
17648;SDS011;8943;51.110;-4.158;2023-02-20T08:03:57;3.57;;;0.50;;
17648;SDS011;8943;51.110;-4.158;2023-02-20T08:06:25;4.43;;;1.10;;
17648;SDS011;8943;51.110;-4.158;2023-02-20T08:08:55;19.37;;;1.90;;
17648;SDS011;8943;51.110;-4.158;2023-02-20T08:11:23;15.10;;;1.50;;
17648;SDS011;8943;51.110;-4.158;2023-02-20T08:13:53;2.17;;;0.80;;
17648;SDS011;8943;51.110;-4.158;2023-02-20T08:16:21;3.80;;;1.20;;
17648;SDS011;8943;51.110;-4.158;2023-02-20T08:18:50;6.53;;;1.10;;
17648;SDS011;8943;51.110;-4.158;2023-02-20T08:21:18;3.90;;;1.07;;
17648;SDS011;8943;51.110;-4.158;2023-02-20T08:23:47;7.00;;;1.70;;
17648;SDS011;8943;51.110;-4.158;2023-02-20T08:26:15;10.07;;;1.30;;
17648;SDS011;8943;51.110;-4.158;2023-02-20T08:28:45;4.97;;;1.20;;
17648;SDS011;8943;51.110;-4.158;2023-02-20T08:31:15;11.30;;;1.53;;
17648;SDS011;8943;51.110;-4.158;2023-02-20T08:33:57;5.43;;;1.30;;
17648;SDS011;8943;51.110;-4.158;2023-02-20T08:36:25;32.23;;;2.27;;
17648;SDS011;8943;51.110;-4.158;2023-02-20T08:38:54;6.93;;;1.10;;
17648;SDS011;8943;51.110;-4.158;2023-02-20T08:41:23;12.73;;;1.20;;
17648;SDS011;8943;51.110;-4.158;2023-02-20T08:43:51;15.30;;;1.60;;
17648;SDS011;8943;51.110;-4.158;2023-02-20T08:46:21;6.63;;;0.70;;
17648;SDS011;8943;51.110;-4.158;2023-02-20T08:48:49;8.83;;;1.57;;
17648;SDS011;8943;51.110;-4.158;2023-02-20T08:51:19;1.50;;;0.43;;
17648;SDS011;8943;51.110;-4.158;2023-02-20T08:53:48;4.43;;;0.70;;
17648;SDS011;8943;51.110;-4.158;2023-02-20T08:56:17;2.53;;;0.63;;
17648;SDS011;8943;51.110;-4.158;2023-02-20T08:58:45;6.23;;;0.70;;
17648;SDS011;8943;51.110;-4.158;2023-02-20T09:01:14;6.50;;;0.77;;
17648;SDS011;8943;51.110;-4.158;2023-02-20T09:03:45;5.27;;;0.70;;
17648;SDS011;8943;51.110;-4.158;2023-02-20T09:06:14;8.20;;;1.10;;
17648;SDS011;8943;51.110;-4.158;2023-02-20T09:08:43;6.00;;;1.10;;
17648;SDS011;8943;51.110;-4.158;2023-02-20T09:11:13;4.77;;;0.60;;
17648;SDS011;8943;51.110;-4.158;2023-02-20T09:13:42;5.33;;;1.03;;
17648;SDS011;8943;51.110;-4.158;2023-02-20T09:16:11;5.60;;;0.97;;
17648;SDS011;8943;51.110;-4.158;2023-02-20T09:18:42;3.60;;;0.87;;
17648;SDS011;8943;51.110;-4.158;2023-02-20T09:21:13;6.37;;;1.00;;
17648;SDS011;8943;51.110;-4.158;2023-02-20T09:23:49;5.97;;;1.00;;
17648;SDS011;8943;51.110;-4.158;2023-02-20T09:26:18;3.83;;;0.90;;
17648;SDS011;8943;51.110;-4.158;2023-02-20T09:28:47;7.67;;;0.90;;
17648;SDS011;8943;51.110;-4.158;2023-02-20T09:31:15;6.93;;;1.53;;
17648;SDS011;8943;51.110;-4.158;2023-02-20T09:33:50;8.47;;;1.00;;
17648;SDS011;8943;51.110;-4.158;2023-02-20T09:36:19;2.87;;;0.53;;
17648;SDS011;8943;51.110;-4.158;2023-02-20T09:38:48;8.43;;;1.23;;
17648;SDS011;8943;51.110;-4.158;2023-02-20T09:41:26;3.97;;;0.80;;
17648;SDS011;8943;51.110;-4.158;2023-02-20T09:44:10;7.80;;;0.90;;
17648;SDS011;8943;51.110;-4.158;2023-02-20T09:46:42;9.50;;;1.23;;
17648;SDS011;8943;51.110;-4.158;2023-02-20T09:49:12;4.20;;;1.67;;
17648;SDS011;8943;51.110;-4.158;2023-02-20T09:51:47;7.23;;;1.17;;
17648;SDS011;8943;51.110;-4.158;2023-02-20T09:54:20;3.40;;;1.33;;
17648;SDS011;8943;51.110;-4.158;2023-02-20T09:56:52;3.80;;;0.80;;
17648;SDS011;8943;51.110;-4.158;2023-02-20T09:59:26;6.53;;;0.80;;
17648;SDS011;8943;51.110;-4.158;2023-02-20T10:02:00;7.23;;;1.10;;
17648;SDS011;8943;51.110;-4.158;2023-02-20T10:04:32;5.10;;;0.90;;
17648;SDS011;8943;51.110;-4.158;2023-02-20T10:07:14;3.47;;;0.57;;
17648;SDS011;8943;51.110;-4.158;2023-02-20T10:09:47;5.77;;;0.80;;
17648;SDS011;8943;51.110;-4.158;2023-02-20T10:12:17;5.90;;;0.70;;
17648;SDS011;8943;51.110;-4.158;2023-02-20T10:17:48;6.10;;;0.70;;
17648;SDS011;8943;51.110;-4.158;2023-02-20T10:20:22;5.63;;;1.23;;
17648;SDS011;8943;51.110;-4.158;2023-02-20T10:23:00;7.13;;;1.00;;
17648;SDS011;8943;51.110;-4.158;2023-02-20T10:25:36;10.43;;;1.50;;
17648;SDS011;8943;51.110;-4.158;2023-02-20T10:28:08;5.73;;;1.10;;
17648;SDS011;8943;51.110;-4.158;2023-02-20T10:30:38;5.80;;;1.00;;
17648;SDS011;8943;51.110;-4.158;2023-02-20T10:33:14;4.00;;;0.97;;
17648;SDS011;8943;51.110;-4.158;2023-02-20T10:35:49;1.87;;;0.63;;
17648;SDS011;8943;51.110;-4.158;2023-02-20T10:38:26;3.20;;;0.90;;
17648;SDS011;8943;51.110;-4.158;2023-02-20T10:41:01;5.97;;;0.77;;
17648;SDS011;8943;51.110;-4.158;2023-02-20T10:43:38;1.53;;;0.50;;
17648;SDS011;8943;51.110;-4.158;2023-02-20T10:46:11;0.90;;;0.37;;
17648;SDS011;8943;51.110;-4.158;2023-02-20T10:48:46;5.53;;;0.60;;
17648;SDS011;8943;51.110;-4.158;2023-02-20T10:51:16;0.53;;;0.30;;
17648;SDS011;8943;51.110;-4.158;2023-02-20T10:53:51;0.67;;;0.30;;
17648;SDS011;8943;51.110;-4.158;2023-02-20T10:56:29;0.40;;;0.20;;
17648;SDS011;8943;51.110;-4.158;2023-02-20T10:59:05;0.97;;;0.30;;
17648;SDS011;8943;51.110;-4.158;2023-02-20T11:01:36;2.00;;;0.50;;
17648;SDS011;8943;51.110;-4.158;2023-02-20T11:04:08;2.83;;;0.30;;
17648;SDS011;8943;51.110;-4.158;2023-02-20T11:06:41;2.63;;;0.47;;
17648;SDS011;8943;51.110;-4.158;2023-02-20T11:09:18;1.33;;;0.17;;
17648;SDS011;8943;51.110;-4.158;2023-02-20T11:11:49;2.77;;;0.50;;
17648;SDS011;8943;51.110;-4.158;2023-02-20T11:14:22;1.63;;;0.37;;
17648;SDS011;8943;51.110;-4.158;2023-02-20T11:17:06;1.97;;;0.40;;
17648;SDS011;8943;51.110;-4.158;2023-02-20T11:19:39;1.53;;;0.33;;
17648;SDS011;8943;51.110;-4.158;2023-02-20T11:22:09;4.53;;;0.40;;
17648;SDS011;8943;51.110;-4.158;2023-02-20T11:24:40;1.33;;;0.20;;
17648;SDS011;8943;51.110;-4.158;2023-02-20T11:27:10;1.23;;;0.10;;
17648;SDS011;8943;51.110;-4.158;2023-02-20T11:29:45;0.90;;;0.50;;
17648;SDS011;8943;51.110;-4.158;2023-02-20T11:35:11;1.80;;;0.40;;
17648;SDS011;8943;51.110;-4.158;2023-02-20T11:37:48;4.53;;;0.63;;
17648;SDS011;8943;51.110;-4.158;2023-02-20T11:40:25;2.60;;;1.10;;
17648;SDS011;8943;51.110;-4.158;2023-02-20T11:42:54;2.27;;;0.60;;
17648;SDS011;8943;51.110;-4.158;2023-02-20T11:45:23;1.07;;;0.53;;
17648;SDS011;8943;51.110;-4.158;2023-02-20T11:48:05;2.93;;;0.50;;
17648;SDS011;8943;51.110;-4.158;2023-02-20T11:50:37;2.57;;;1.07;;
17648;SDS011;8943;51.110;-4.158;2023-02-20T11:53:10;1.60;;;0.50;;
17648;SDS011;8943;51.110;-4.158;2023-02-20T11:55:47;0.43;;;0.30;;
17648;SDS011;8943;51.110;-4.158;2023-02-20T11:58:26;1.97;;;0.60;;
17648;SDS011;8943;51.110;-4.158;2023-02-20T12:00:54;1.27;;;0.63;;
17648;SDS011;8943;51.110;-4.158;2023-02-20T12:03:23;2.03;;;0.90;;
17648;SDS011;8943;51.110;-4.158;2023-02-20T12:05:54;3.27;;;1.00;;
17648;SDS011;8943;51.110;-4.158;2023-02-20T12:08:27;2.83;;;1.73;;
17648;SDS011;8943;51.110;-4.158;2023-02-20T12:11:05;5.70;;;1.30;;
17648;SDS011;8943;51.110;-4.158;2023-02-20T12:13:36;2.40;;;0.97;;
17648;SDS011;8943;51.110;-4.158;2023-02-20T12:16:11;3.37;;;0.70;;
17648;SDS011;8943;51.110;-4.158;2023-02-20T12:18:52;9.77;;;1.27;;
17648;SDS011;8943;51.110;-4.158;2023-02-20T12:21:35;2.67;;;1.20;;
17648;SDS011;8943;51.110;-4.158;2023-02-20T12:24:23;3.23;;;0.67;;
17648;SDS011;8943;51.110;-4.158;2023-02-20T12:27:08;1.80;;;1.10;;
17648;SDS011;8943;51.110;-4.158;2023-02-20T12:29:54;2.80;;;0.77;;
17648;SDS011;8943;51.110;-4.158;2023-02-20T12:32:32;1.33;;;0.43;;
17648;SDS011;8943;51.110;-4.158;2023-02-20T12:35:27;3.17;;;0.70;;
17648;SDS011;8943;51.110;-4.158;2023-02-20T12:38:21;3.07;;;0.90;;
17648;SDS011;8943;51.110;-4.158;2023-02-20T12:41:11;2.23;;;0.60;;
17648;SDS011;8943;51.110;-4.158;2023-02-20T12:43:51;2.43;;;0.60;;
17648;SDS011;8943;51.110;-4.158;2023-02-20T12:46:40;2.67;;;0.50;;
17648;SDS011;8943;51.110;-4.158;2023-02-20T12:49:20;3.87;;;0.60;;
17648;SDS011;8943;51.110;-4.158;2023-02-20T12:51:57;3.30;;;1.03;;
17648;SDS011;8943;51.110;-4.158;2023-02-20T12:54:32;3.03;;;0.90;;
17648;SDS011;8943;51.110;-4.158;2023-02-20T12:57:11;2.73;;;0.80;;
17648;SDS011;8943;51.110;-4.158;2023-02-20T12:59:48;2.70;;;0.77;;
17648;SDS011;8943;51.110;-4.158;2023-02-20T13:02:26;4.33;;;0.70;;
17648;SDS011;8943;51.110;-4.158;2023-02-20T13:05:08;2.20;;;1.00;;
17648;SDS011;8943;51.110;-4.158;2023-02-20T13:07:41;1.60;;;0.80;;
17648;SDS011;8943;51.110;-4.158;2023-02-20T13:10:15;4.43;;;1.00;;
17648;SDS011;8943;51.110;-4.158;2023-02-20T13:12:46;0.93;;;0.40;;
17648;SDS011;8943;51.110;-4.158;2023-02-20T13:15:20;3.97;;;0.90;;
17648;SDS011;8943;51.110;-4.158;2023-02-20T13:17:59;2.03;;;0.50;;
17648;SDS011;8943;51.110;-4.158;2023-02-20T13:20:35;3.00;;;1.10;;
17648;SDS011;8943;51.110;-4.158;2023-02-20T13:23:25;5.83;;;0.83;;
17648;SDS011;8943;51.110;-4.158;2023-02-20T13:25:55;1.63;;;0.50;;
17648;SDS011;8943;51.110;-4.158;2023-02-20T13:28:25;5.10;;;0.93;;
17648;SDS011;8943;51.110;-4.158;2023-02-20T13:31:12;0.80;;;0.50;;
17648;SDS011;8943;51.110;-4.158;2023-02-20T13:33:45;2.03;;;0.33;;
17648;SDS011;8943;51.110;-4.158;2023-02-20T13:36:16;0.10;;;0.07;;
17648;SDS011;8943;51.110;-4.158;2023-02-20T13:44:55;2.20;;;0.47;;
17648;SDS011;8943;51.110;-4.158;2023-02-20T13:47:36;1.20;;;0.60;;
17648;SDS011;8943;51.110;-4.158;2023-02-20T13:53:04;4.03;;;0.73;;
17648;SDS011;8943;51.110;-4.158;2023-02-20T13:55:32;2.17;;;0.50;;
17648;SDS011;8943;51.110;-4.158;2023-02-20T13:58:02;2.07;;;1.30;;
17648;SDS011;8943;51.110;-4.158;2023-02-20T14:00:35;0.60;;;0.40;;
17648;SDS011;8943;51.110;-4.158;2023-02-20T14:03:17;2.33;;;0.93;;
17648;SDS011;8943;51.110;-4.158;2023-02-20T14:06:00;1.90;;;0.53;;
17648;SDS011;8943;51.110;-4.158;2023-02-20T14:08:29;6.57;;;1.10;;
17648;SDS011;8943;51.110;-4.158;2023-02-20T14:11:02;1.83;;;0.80;;
17648;SDS011;8943;51.110;-4.158;2023-02-20T14:13:31;7.63;;;1.23;;
17648;SDS011;8943;51.110;-4.158;2023-02-20T14:16:20;1.40;;;0.63;;
17648;SDS011;8943;51.110;-4.158;2023-02-20T14:18:57;2.63;;;0.70;;
17648;SDS011;8943;51.110;-4.158;2023-02-20T14:21:26;5.03;;;0.83;;
17648;SDS011;8943;51.110;-4.158;2023-02-20T14:23:55;2.23;;;0.90;;
17648;SDS011;8943;51.110;-4.158;2023-02-20T14:26:24;2.70;;;0.90;;
17648;SDS011;8943;51.110;-4.158;2023-02-20T14:28:54;7.93;;;0.70;;
17648;SDS011;8943;51.110;-4.158;2023-02-20T14:31:25;4.27;;;1.10;;
17648;SDS011;8943;51.110;-4.158;2023-02-20T14:33:54;4.90;;;1.17;;
17648;SDS011;8943;51.110;-4.158;2023-02-20T14:36:43;2.73;;;0.80;;
17648;SDS011;8943;51.110;-4.158;2023-02-20T14:39:23;3.77;;;0.70;;
17648;SDS011;8943;51.110;-4.158;2023-02-20T14:42:01;3.57;;;0.90;;
17648;SDS011;8943;51.110;-4.158;2023-02-20T14:44:31;3.23;;;1.10;;
17648;SDS011;8943;51.110;-4.158;2023-02-20T14:47:01;3.03;;;0.83;;
17648;SDS011;8943;51.110;-4.158;2023-02-20T14:49:37;9.43;;;2.07;;
17648;SDS011;8943;51.110;-4.158;2023-02-20T14:52:12;11.50;;;1.87;;
17648;SDS011;8943;51.110;-4.158;2023-02-20T14:54:42;4.03;;;0.93;;
17648;SDS011;8943;51.110;-4.158;2023-02-20T14:57:12;4.90;;;0.90;;
17648;SDS011;8943;51.110;-4.158;2023-02-20T14:59:41;1.90;;;0.73;;
17648;SDS011;8943;51.110;-4.158;2023-02-20T15:02:12;1.80;;;0.60;;
17648;SDS011;8943;51.110;-4.158;2023-02-20T15:05:01;2.73;;;0.83;;
17648;SDS011;8943;51.110;-4.158;2023-02-20T15:07:31;0.90;;;0.37;;
17648;SDS011;8943;51.110;-4.158;2023-02-20T15:10:00;3.47;;;0.77;;
17648;SDS011;8943;51.110;-4.158;2023-02-20T15:12:31;2.43;;;0.50;;
17648;SDS011;8943;51.110;-4.158;2023-02-20T15:15:02;4.97;;;0.83;;
17648;SDS011;8943;51.110;-4.158;2023-02-20T15:17:32;1.50;;;0.50;;
17648;SDS011;8943;51.110;-4.158;2023-02-20T15:20:16;4.70;;;1.33;;
17648;SDS011;8943;51.110;-4.158;2023-02-20T15:22:45;2.77;;;1.07;;
17648;SDS011;8943;51.110;-4.158;2023-02-20T15:25:14;2.07;;;0.77;;
17648;SDS011;8943;51.110;-4.158;2023-02-20T15:28:05;2.90;;;0.57;;
17648;SDS011;8943;51.110;-4.158;2023-02-20T15:30:34;5.97;;;1.00;;
17648;SDS011;8943;51.110;-4.158;2023-02-20T15:33:06;2.40;;;0.70;;
17648;SDS011;8943;51.110;-4.158;2023-02-20T15:35:37;2.47;;;0.43;;
17648;SDS011;8943;51.110;-4.158;2023-02-20T15:38:05;6.43;;;1.10;;
17648;SDS011;8943;51.110;-4.158;2023-02-20T15:40:35;6.43;;;0.50;;
17648;SDS011;8943;51.110;-4.158;2023-02-20T15:43:04;4.40;;;1.10;;
17648;SDS011;8943;51.110;-4.158;2023-02-20T15:45:57;2.33;;;0.57;;